createdAt,value
2019-03-29T00:01:07.721Z,12.87
2019-03-29T00:03:36.713Z,14.87
2019-03-29T00:06:05.788Z,17.43
2019-03-29T00:08:35.970Z,15.53
2019-03-29T00:11:05.429Z,16.37
2019-03-29T00:13:34.417Z,23.60
2019-03-29T00:16:03.353Z,18.17
2019-03-29T00:18:32.353Z,18.40
2019-03-29T00:21:01.381Z,27.83
2019-03-29T00:23:30.460Z,16.40
2019-03-29T00:25:59.498Z,18.90
2019-03-29T00:28:28.483Z,20.47
2019-03-29T00:30:57.496Z,23.23
2019-03-29T00:33:26.418Z,17.70
2019-03-29T00:35:55.445Z,15.60
2019-03-29T00:38:24.483Z,17.37
2019-03-29T00:40:53.502Z,17.03
2019-03-29T00:43:22.521Z,19.67
2019-03-29T00:45:51.562Z,18.27
2019-03-29T00:48:21.229Z,15.57
2019-03-29T00:50:50.826Z,18.90
2019-03-29T00:53:19.822Z,20.40
2019-03-29T00:55:48.846Z,19.93
2019-03-29T00:58:17.918Z,19.03
2019-03-29T01:00:46.954Z,14.37
2019-03-29T01:03:15.940Z,13.73
2019-03-29T01:05:44.929Z,21.53
2019-03-29T01:08:14.141Z,16.40
2019-03-29T01:10:43.142Z,20.17
2019-03-29T01:13:12.153Z,15.37
2019-03-29T01:15:41.136Z,18.80
2019-03-29T01:18:10.187Z,15.47
2019-03-29T01:20:39.222Z,12.20
2019-03-29T01:23:08.238Z,17.93
2019-03-29T01:25:37.230Z,17.07
2019-03-29T01:28:06.240Z,13.93
2019-03-29T01:30:35.238Z,15.57
2019-03-29T01:33:04.249Z,19.07
2019-03-29T01:35:33.289Z,18.10
2019-03-29T01:38:02.302Z,17.80
2019-03-29T01:40:31.297Z,23.57
2019-03-29T01:43:00.306Z,18.73
2019-03-29T01:45:29.381Z,18.90
2019-03-29T01:47:58.469Z,22.60
2019-03-29T01:50:27.379Z,29.13
2019-03-29T01:52:56.389Z,21.63
2019-03-29T01:55:25.297Z,16.13
2019-03-29T01:57:54.274Z,20.13
2019-03-29T02:00:24.860Z,14.17
2019-03-29T02:02:53.888Z,22.77
2019-03-29T02:05:22.872Z,26.07
2019-03-29T02:07:51.806Z,29.63
2019-03-29T02:10:20.914Z,19.43
2019-03-29T02:12:49.917Z,20.37
2019-03-29T02:15:18.909Z,19.53
2019-03-29T02:17:47.984Z,17.67
2019-03-29T02:20:16.909Z,21.27
2019-03-29T02:22:45.935Z,23.50
2019-03-29T02:25:15.320Z,20.43
2019-03-29T02:27:45.128Z,17.10
2019-03-29T02:30:14.396Z,20.40
2019-03-29T02:32:43.397Z,15.57
2019-03-29T02:35:12.383Z,21.00
2019-03-29T02:37:41.430Z,20.67
2019-03-29T02:40:10.700Z,21.60
2019-03-29T02:42:39.712Z,17.80
2019-03-29T02:45:10.505Z,18.70
2019-03-29T02:47:39.498Z,21.40
2019-03-29T02:50:09.229Z,15.37
2019-03-29T02:52:38.293Z,16.93
2019-03-29T02:55:07.305Z,23.73
2019-03-29T02:57:36.353Z,16.97
2019-03-29T03:00:07.000Z,16.53
2019-03-29T03:02:36.202Z,17.73
2019-03-29T03:05:05.449Z,18.97
2019-03-29T03:07:34.438Z,17.90
2019-03-29T03:10:04.963Z,18.73
2019-03-29T03:12:33.957Z,19.00
2019-03-29T03:15:02.981Z,25.90
2019-03-29T03:17:31.970Z,26.97
2019-03-29T03:20:00.994Z,31.37
2019-03-29T03:22:30.098Z,24.17
2019-03-29T03:24:59.121Z,25.50
2019-03-29T03:27:28.105Z,23.03
2019-03-29T03:29:57.123Z,23.90
2019-03-29T03:32:26.130Z,26.03
2019-03-29T03:34:55.181Z,27.23
2019-03-29T03:37:24.148Z,20.43
2019-03-29T03:39:53.206Z,22.77
2019-03-29T03:42:22.209Z,21.10
2019-03-29T03:44:51.221Z,21.80
2019-03-29T03:47:20.219Z,17.33
2019-03-29T03:49:49.268Z,21.47
2019-03-29T03:52:18.326Z,24.27
2019-03-29T03:54:47.337Z,16.80
2019-03-29T03:57:16.699Z,21.87
2019-03-29T03:59:46.026Z,21.50
2019-03-29T04:02:15.056Z,22.90
2019-03-29T04:04:44.044Z,19.60
2019-03-29T04:07:13.165Z,20.53
2019-03-29T04:09:49.835Z,24.87
2019-03-29T04:12:12.771Z,20.90
2019-03-29T04:14:41.749Z,20.10
2019-03-29T04:17:10.673Z,22.67
2019-03-29T04:19:39.734Z,28.37
2019-03-29T04:22:08.738Z,25.70
2019-03-29T04:24:37.752Z,25.93
2019-03-29T04:27:06.748Z,30.20
2019-03-29T04:29:35.766Z,33.63
2019-03-29T04:32:04.774Z,31.30
2019-03-29T04:34:33.783Z,22.57
2019-03-29T04:37:02.798Z,17.93
2019-03-29T04:39:31.796Z,24.77
2019-03-29T04:42:00.816Z,23.00
2019-03-29T04:44:29.919Z,21.23
2019-03-29T04:46:58.949Z,22.47
2019-03-29T04:49:27.941Z,26.27
2019-03-29T04:51:58.020Z,29.70
2019-03-29T04:54:27.023Z,23.20
2019-03-29T04:56:56.095Z,24.83
2019-03-29T04:59:32.465Z,26.53
2019-03-29T05:02:01.549Z,27.53
2019-03-29T05:04:30.584Z,27.73
2019-03-29T05:06:59.654Z,25.83
2019-03-29T05:09:28.713Z,25.73
2019-03-29T05:11:57.723Z,23.70
2019-03-29T05:14:26.717Z,23.57
2019-03-29T05:16:55.664Z,32.97
2019-03-29T05:19:24.654Z,25.77
2019-03-29T05:21:53.686Z,23.73
2019-03-29T05:24:22.692Z,35.90
2019-03-29T05:26:51.721Z,29.03
2019-03-29T05:29:20.721Z,31.00
2019-03-29T05:31:49.737Z,26.27
2019-03-29T05:34:18.718Z,19.80
2019-03-29T05:36:47.759Z,17.77
2019-03-29T05:39:16.730Z,15.67
2019-03-29T05:41:45.745Z,16.40
2019-03-29T05:44:14.690Z,19.70
2019-03-29T05:46:43.694Z,15.40
2019-03-29T05:49:12.683Z,11.67
2019-03-29T05:51:41.690Z,11.30
2019-03-29T05:54:30.373Z,10.17
2019-03-29T05:56:59.390Z,10.53
2019-03-29T05:59:28.390Z,9.07
2019-03-29T06:01:57.406Z,13.30
2019-03-29T06:04:26.455Z,10.07
2019-03-29T06:06:55.449Z,9.57
2019-03-29T06:09:24.441Z,11.07
2019-03-29T06:11:53.464Z,10.20
2019-03-29T06:14:22.502Z,10.03
2019-03-29T06:16:51.522Z,11.23
2019-03-29T06:19:20.586Z,10.90
2019-03-29T06:21:49.729Z,10.03
2019-03-29T06:24:18.699Z,9.70
2019-03-29T06:26:47.749Z,9.07
2019-03-29T06:29:16.759Z,9.20
2019-03-29T06:31:45.756Z,15.47
2019-03-29T06:34:14.816Z,16.27
2019-03-29T06:36:44.329Z,25.40
2019-03-29T06:39:13.386Z,22.05
2019-03-29T06:41:43.331Z,24.18
2019-03-29T06:44:13.333Z,25.97
2019-03-29T06:46:42.338Z,29.52
2019-03-29T06:49:11.364Z,24.92
2019-03-29T06:51:40.402Z,28.10
2019-03-29T06:54:09.423Z,26.23
2019-03-29T06:56:38.430Z,24.43
2019-03-29T06:59:07.468Z,25.68
2019-03-29T07:01:36.483Z,25.62
2019-03-29T07:04:06.583Z,26.33
2019-03-29T07:06:35.580Z,23.77
2019-03-29T07:09:05.686Z,26.30
2019-03-29T07:11:34.683Z,25.10
2019-03-29T07:14:03.779Z,23.75
2019-03-29T07:16:32.883Z,21.62
2019-03-29T07:19:05.003Z,18.90
2019-03-29T07:21:32.999Z,20.40
2019-03-29T07:24:02.139Z,16.23
2019-03-29T07:26:31.123Z,17.52
2019-03-29T07:29:00.153Z,17.67
2019-03-29T07:34:59.523Z,17.07
2019-03-29T07:37:28.563Z,16.40
2019-03-29T07:39:57.600Z,16.77
2019-03-29T07:42:26.610Z,18.65
2019-03-29T07:44:55.668Z,18.30
2019-03-29T07:47:24.677Z,19.40
2019-03-29T07:49:53.701Z,23.70
2019-03-29T07:52:23.878Z,17.42
2019-03-29T07:54:53.035Z,19.85
2019-03-29T07:57:22.030Z,25.20
2019-03-29T07:59:51.108Z,21.97
2019-03-29T08:02:20.272Z,20.85
2019-03-29T08:04:49.300Z,19.30
2019-03-29T08:07:27.255Z,18.67
2019-03-29T08:09:48.942Z,24.23
2019-03-29T08:12:18.007Z,18.52
2019-03-29T08:14:47.093Z,16.25
2019-03-29T08:17:16.103Z,15.98
2019-03-29T08:19:45.142Z,16.75
2019-03-29T08:22:14.152Z,17.50
2019-03-29T08:24:43.170Z,13.20
2019-03-29T08:27:13.258Z,13.98
2019-03-29T08:29:42.258Z,11.93
2019-03-29T08:32:11.282Z,13.38
2019-03-29T08:34:40.294Z,13.25
2019-03-29T08:37:09.453Z,13.68
2019-03-29T08:39:38.484Z,11.83
2019-03-29T08:42:07.486Z,11.33
2019-03-29T08:44:36.544Z,11.63
2019-03-29T08:47:05.573Z,10.90
2019-03-29T08:49:34.593Z,9.43
2019-03-29T08:52:03.589Z,11.48
2019-03-29T08:54:32.631Z,10.10
2019-03-29T08:57:01.653Z,9.60
2019-03-29T08:59:30.671Z,7.83
2019-03-29T09:01:59.716Z,9.15
2019-03-29T09:04:28.770Z,10.35
2019-03-29T09:06:57.833Z,8.80
2019-03-29T09:09:26.817Z,12.53
2019-03-29T09:11:55.778Z,9.25
2019-03-29T09:14:31.544Z,10.45
2019-03-29T09:17:01.178Z,9.63
2019-03-29T09:19:30.170Z,9.55
2019-03-29T09:21:59.238Z,9.85
2019-03-29T09:24:28.168Z,8.03
2019-03-29T09:26:57.109Z,7.37
2019-03-29T09:29:26.117Z,7.40
2019-03-29T09:31:55.631Z,8.90
2019-03-29T09:34:24.680Z,7.55
2019-03-29T09:36:53.706Z,7.37
2019-03-29T09:39:22.719Z,7.75
2019-03-29T09:41:51.739Z,8.23
2019-03-29T09:44:20.791Z,10.88
2019-03-29T09:46:49.780Z,9.30
2019-03-29T09:49:18.832Z,8.48
2019-03-29T09:51:47.830Z,9.43
2019-03-29T09:54:20.127Z,10.48
2019-03-29T09:56:48.497Z,9.33
2019-03-29T09:59:17.581Z,7.87
2019-03-29T10:01:46.619Z,8.60
2019-03-29T10:04:15.615Z,11.50
2019-03-29T10:06:44.625Z,9.43
2019-03-29T10:09:13.633Z,9.48
2019-03-29T10:11:42.750Z,7.97
2019-03-29T10:14:11.810Z,11.83
2019-03-29T10:16:40.866Z,9.18
2019-03-29T10:19:09.864Z,9.25
2019-03-29T10:21:38.865Z,10.05
2019-03-29T10:24:07.853Z,8.88
2019-03-29T10:26:36.863Z,11.90
2019-03-29T10:29:05.915Z,9.38
2019-03-29T10:31:34.870Z,10.20
2019-03-29T10:34:03.877Z,9.48
2019-03-29T10:36:32.897Z,9.95
2019-03-29T10:39:01.888Z,9.50
2019-03-29T10:41:34.524Z,11.43
2019-03-29T10:44:03.383Z,7.87
2019-03-29T10:46:32.394Z,8.85
2019-03-29T10:49:01.383Z,10.40
2019-03-29T10:51:30.390Z,10.82
2019-03-29T10:53:59.388Z,10.35
2019-03-29T10:56:34.277Z,10.85
2019-03-29T10:58:59.018Z,8.40
2019-03-29T11:01:28.023Z,9.35
2019-03-29T11:03:57.030Z,10.65
2019-03-29T11:06:26.040Z,11.68
2019-03-29T11:08:55.021Z,9.98
2019-03-29T11:11:24.085Z,8.68
2019-03-29T11:13:56.416Z,11.15
2019-03-29T11:16:23.729Z,8.68
2019-03-29T11:18:52.741Z,10.95
2019-03-29T11:21:21.739Z,10.55
2019-03-29T11:23:50.761Z,8.55
2019-03-29T11:26:19.765Z,10.48
2019-03-29T11:29:13.597Z,11.30
2019-03-29T11:31:42.610Z,10.35
2019-03-29T11:34:11.655Z,10.78
2019-03-29T11:36:40.688Z,13.22
2019-03-29T11:39:09.680Z,9.03
2019-03-29T11:41:38.721Z,7.90
2019-03-29T11:44:07.727Z,11.28
2019-03-29T11:46:36.745Z,11.00
2019-03-29T11:49:05.836Z,9.70
2019-03-29T11:51:34.852Z,11.60
2019-03-29T11:54:03.992Z,8.63
2019-03-29T11:56:32.988Z,9.53
2019-03-29T11:59:02.062Z,13.68
2019-03-29T12:01:31.130Z,8.53
2019-03-29T12:04:00.167Z,11.30
2019-03-29T12:06:29.160Z,10.72
2019-03-29T12:08:58.180Z,10.68
2019-03-29T12:11:27.181Z,9.23
2019-03-29T12:13:56.230Z,12.25
2019-03-29T12:16:25.224Z,8.08
2019-03-29T12:18:54.541Z,9.45
2019-03-29T12:21:23.606Z,10.03
2019-03-29T12:23:52.710Z,12.07
2019-03-29T12:26:21.728Z,11.35
2019-03-29T12:28:50.771Z,9.95
2019-03-29T12:31:19.800Z,12.13
2019-03-29T12:33:48.819Z,11.78
2019-03-29T12:36:17.830Z,11.10
2019-03-29T12:38:46.850Z,10.03
2019-03-29T12:41:15.866Z,10.15
2019-03-29T12:43:54.831Z,10.60
2019-03-29T12:46:15.605Z,10.40
2019-03-29T12:48:44.641Z,12.78
2019-03-29T12:51:13.652Z,12.00
2019-03-29T12:54:11.919Z,11.63
2019-03-29T12:56:39.414Z,12.40
2019-03-29T12:59:08.403Z,12.65
2019-03-29T13:01:39.728Z,11.97
2019-03-29T13:04:09.754Z,12.78
2019-03-29T13:06:38.645Z,12.50
2019-03-29T13:09:07.945Z,14.87
2019-03-29T13:11:37.239Z,12.15
2019-03-29T13:14:10.646Z,16.48
2019-03-29T13:16:36.890Z,12.18
2019-03-29T13:19:05.904Z,12.00
2019-03-29T13:21:34.913Z,11.25
2019-03-29T13:24:03.916Z,12.00
2019-03-29T13:26:32.968Z,13.05
2019-03-29T13:29:01.979Z,8.70
2019-03-29T13:31:31.036Z,11.90
2019-03-29T13:34:00.049Z,9.75
2019-03-29T13:36:29.082Z,11.03
2019-03-29T13:38:58.089Z,11.80
2019-03-29T13:41:27.189Z,11.38
2019-03-29T13:43:56.200Z,12.78
2019-03-29T13:46:25.723Z,10.15
2019-03-29T13:48:54.765Z,7.35
2019-03-29T13:51:24.280Z,10.20
2019-03-29T13:53:53.393Z,10.40
2019-03-29T13:56:22.560Z,11.97
2019-03-29T13:58:51.529Z,10.72
2019-03-29T14:01:20.466Z,13.20
2019-03-29T14:03:49.480Z,9.23
2019-03-29T14:06:18.490Z,10.75
2019-03-29T14:08:47.482Z,9.85
2019-03-29T14:11:16.507Z,12.00
2019-03-29T14:13:45.573Z,12.60
2019-03-29T14:16:19.089Z,12.68
2019-03-29T14:18:48.137Z,11.08
2019-03-29T14:21:17.160Z,11.40
2019-03-29T14:23:46.149Z,12.37
2019-03-29T14:26:16.345Z,9.40
2019-03-29T14:28:45.344Z,12.37
2019-03-29T14:31:14.349Z,10.48
2019-03-29T14:33:43.354Z,12.05
2019-03-29T14:36:12.367Z,11.48
2019-03-29T14:38:41.363Z,13.68
2019-03-29T14:41:10.373Z,11.05
2019-03-29T14:43:39.363Z,12.25
2019-03-29T14:46:08.370Z,11.33
2019-03-29T14:48:37.397Z,12.35
2019-03-29T14:51:06.449Z,14.03
2019-03-29T14:53:35.377Z,15.40
2019-03-29T14:56:04.421Z,9.85
2019-03-29T14:58:33.427Z,13.13
2019-03-29T15:01:02.416Z,10.80
2019-03-29T15:03:31.439Z,12.93
2019-03-29T15:06:01.792Z,14.28
2019-03-29T15:08:31.131Z,13.10
2019-03-29T15:11:00.125Z,14.45
2019-03-29T15:13:29.084Z,12.78
2019-03-29T15:15:58.085Z,14.65
2019-03-29T15:18:27.115Z,14.33
2019-03-29T15:20:56.199Z,13.55
2019-03-29T15:23:25.230Z,14.43
2019-03-29T15:25:54.240Z,12.00
2019-03-29T15:28:23.293Z,14.85
2019-03-29T15:31:01.522Z,13.28
2019-03-29T15:33:30.371Z,11.75
2019-03-29T15:35:59.352Z,11.88
2019-03-29T15:38:28.374Z,18.82
2019-03-29T15:40:57.438Z,12.93
2019-03-29T15:43:26.523Z,10.75
2019-03-29T15:45:55.533Z,13.88
2019-03-29T15:48:24.567Z,15.30
2019-03-29T15:50:54.528Z,13.65
2019-03-29T15:53:23.485Z,16.97
2019-03-29T15:55:52.502Z,16.45
2019-03-29T15:58:21.496Z,16.17
2019-03-29T16:00:51.571Z,13.65
2019-03-29T16:03:20.588Z,13.83
2019-03-29T16:05:49.582Z,16.15
2019-03-29T16:08:18.625Z,13.28
2019-03-29T16:10:47.638Z,15.38
2019-03-29T16:13:16.677Z,16.27
2019-03-29T16:15:45.720Z,13.80
2019-03-29T16:18:14.722Z,13.48
2019-03-29T16:20:43.722Z,16.77
2019-03-29T16:23:12.763Z,16.05
2019-03-29T16:25:41.776Z,19.35
2019-03-29T16:28:10.833Z,15.98
2019-03-29T16:30:39.759Z,14.87
2019-03-29T16:33:08.820Z,15.58
2019-03-29T16:35:37.855Z,17.57
2019-03-29T16:38:06.929Z,15.70
2019-03-29T16:40:35.919Z,17.30
2019-03-29T16:43:06.485Z,13.22
2019-03-29T16:45:47.182Z,14.53
2019-03-29T16:48:06.899Z,15.18
2019-03-29T16:50:36.114Z,15.05
2019-03-29T16:53:05.183Z,25.72
2019-03-29T16:55:34.342Z,14.40
2019-03-29T16:58:03.368Z,18.73
2019-03-29T17:00:32.316Z,15.93
2019-03-29T17:03:01.313Z,14.33
2019-03-29T17:05:30.329Z,15.60
2019-03-29T17:07:59.270Z,14.83
2019-03-29T17:10:29.249Z,22.87
2019-03-29T17:12:58.204Z,20.13
2019-03-29T17:15:27.220Z,19.03
2019-03-29T17:17:56.264Z,16.90
2019-03-29T17:20:25.282Z,14.47
2019-03-29T17:22:54.269Z,13.53
2019-03-29T17:25:23.293Z,13.57
2019-03-29T17:27:52.435Z,14.57
2019-03-29T17:30:22.953Z,14.67
2019-03-29T17:32:51.958Z,17.63
2019-03-29T17:35:21.165Z,17.43
2019-03-29T17:37:50.133Z,16.67
2019-03-29T17:40:19.154Z,14.40
2019-03-29T17:42:49.221Z,13.00
2019-03-29T17:45:18.232Z,13.37
2019-03-29T17:47:47.260Z,16.53
2019-03-29T17:50:16.258Z,14.93
2019-03-29T17:52:46.861Z,17.03
2019-03-29T17:55:15.878Z,14.20
2019-03-29T17:57:44.866Z,13.03
2019-03-29T18:00:15.798Z,14.87
2019-03-29T18:02:44.801Z,18.60
2019-03-29T18:05:13.813Z,15.37
2019-03-29T18:07:43.878Z,13.93
2019-03-29T18:10:12.990Z,14.80
2019-03-29T18:12:41.993Z,15.10
2019-03-29T18:15:11.385Z,13.83
2019-03-29T18:17:40.458Z,16.27
2019-03-29T18:20:09.560Z,11.27
2019-03-29T18:22:38.577Z,14.97
2019-03-29T18:25:07.983Z,15.30
2019-03-29T18:27:36.969Z,14.93
2019-03-29T18:30:06.741Z,15.60
2019-03-29T18:32:35.936Z,18.07
2019-03-29T18:35:06.150Z,14.80
2019-03-29T18:37:35.239Z,14.67
2019-03-29T18:40:05.429Z,18.93
2019-03-29T18:42:34.432Z,13.37
2019-03-29T18:45:04.832Z,17.03
2019-03-29T18:47:33.818Z,11.20
2019-03-29T18:50:02.890Z,13.13
2019-03-29T18:52:31.897Z,15.33
2019-03-29T18:55:00.827Z,12.93
2019-03-29T18:57:30.063Z,14.30
2019-03-29T18:59:59.033Z,14.80
2019-03-29T19:09:01.164Z,14.97
2019-03-29T19:11:31.813Z,17.00
2019-03-29T19:14:00.802Z,19.00
2019-03-29T19:19:58.895Z,16.63
2019-03-29T19:22:28.055Z,18.30
2019-03-29T19:24:57.102Z,15.60
2019-03-29T19:27:26.127Z,16.07
2019-03-29T19:29:55.142Z,17.37
2019-03-29T19:32:24.143Z,19.50
2019-03-29T19:34:53.134Z,14.80
2019-03-29T19:37:22.142Z,16.23
2019-03-29T19:39:51.136Z,22.80
2019-03-29T19:42:20.087Z,19.67
2019-03-29T19:44:49.067Z,15.87
2019-03-29T19:47:19.076Z,17.70
2019-03-29T19:49:48.154Z,22.90
2019-03-29T19:52:17.184Z,15.63
2019-03-29T19:54:46.213Z,15.60
2019-03-29T19:57:15.232Z,14.60
2019-03-29T19:59:47.866Z,24.10
2019-03-29T20:02:14.885Z,24.00
2019-03-29T20:04:43.938Z,19.83
2019-03-29T20:07:12.958Z,23.17
2019-03-29T20:09:42.282Z,22.20
2019-03-29T20:12:11.259Z,20.70
2019-03-29T20:14:40.256Z,16.43
2019-03-29T20:17:09.185Z,23.63
2019-03-29T20:19:38.124Z,23.87
2019-03-29T20:22:07.124Z,25.63
2019-03-29T20:24:36.182Z,16.80
2019-03-29T20:27:05.186Z,19.43
2019-03-29T20:29:34.216Z,18.13
2019-03-29T20:32:03.226Z,16.10
2019-03-29T20:34:32.308Z,23.03
2019-03-29T20:37:01.233Z,26.47
2019-03-29T20:39:30.182Z,21.50
2019-03-29T20:41:59.182Z,19.53
2019-03-29T20:44:28.183Z,15.63
2019-03-29T20:46:57.247Z,22.40
2019-03-29T20:49:26.265Z,23.47
2019-03-29T20:51:55.251Z,20.57
2019-03-29T20:54:24.461Z,25.83
2019-03-29T20:56:53.454Z,23.37
2019-03-29T20:59:22.504Z,22.67
2019-03-29T21:01:52.816Z,36.10
2019-03-29T21:04:22.043Z,31.83
2019-03-29T21:06:51.098Z,32.03
2019-03-29T21:09:20.117Z,35.17
2019-03-29T21:11:49.418Z,32.63
2019-03-29T21:14:18.390Z,28.60
2019-03-29T21:16:47.445Z,26.47
2019-03-29T21:19:16.432Z,22.43
2019-03-29T21:21:45.491Z,26.87
2019-03-29T21:24:15.575Z,24.63
2019-03-29T21:26:44.622Z,26.07
2019-03-29T21:29:13.568Z,27.93
2019-03-29T21:31:42.565Z,29.17
2019-03-29T21:34:11.513Z,25.83
2019-03-29T21:36:42.141Z,21.33
2019-03-29T21:39:13.416Z,26.67
2019-03-29T21:41:42.414Z,28.23
2019-03-29T21:44:11.422Z,25.53
2019-03-29T21:46:40.426Z,33.07
2019-03-29T21:49:09.481Z,37.73
2019-03-29T21:51:38.493Z,34.53
2019-03-29T21:54:07.531Z,34.50
2019-03-29T21:56:36.509Z,44.63
2019-03-29T21:59:05.556Z,38.83
2019-03-29T22:01:34.495Z,38.17
2019-03-29T22:04:03.495Z,34.23
2019-03-29T22:06:32.510Z,36.50
2019-03-29T22:09:01.521Z,38.73
2019-03-29T22:11:32.173Z,28.83
2019-03-29T22:14:01.274Z,30.57
2019-03-29T22:16:30.277Z,32.23
2019-03-29T22:18:59.267Z,32.47
2019-03-29T22:21:28.274Z,43.07
2019-03-29T22:23:57.265Z,32.17
2019-03-29T22:26:26.271Z,34.30
2019-03-29T22:28:55.277Z,28.33
2019-03-29T22:31:24.295Z,26.17
2019-03-29T22:33:53.331Z,23.00
2019-03-29T22:36:23.288Z,25.90
2019-03-29T22:38:52.289Z,31.53
2019-03-29T22:41:21.227Z,27.80
2019-03-29T22:43:50.226Z,23.97
2019-03-29T22:46:19.256Z,34.87
2019-03-29T22:48:52.971Z,38.43
2019-03-29T22:51:18.962Z,32.57
2019-03-29T22:53:47.941Z,37.70
2019-03-29T22:56:16.972Z,28.73
2019-03-29T22:58:45.984Z,34.17
2019-03-29T23:01:15.095Z,35.57
2019-03-29T23:03:45.778Z,41.00
2019-03-29T23:06:14.781Z,29.53
2019-03-29T23:08:43.717Z,34.03
2019-03-29T23:11:14.159Z,34.07
2019-03-29T23:13:43.413Z,35.30
2019-03-29T23:16:12.479Z,33.40
2019-03-29T23:18:41.467Z,30.47
2019-03-29T23:21:10.485Z,35.63
2019-03-29T23:23:39.404Z,33.67
2019-03-29T23:26:08.424Z,34.30
2019-03-29T23:28:37.424Z,36.83
2019-03-29T23:31:06.545Z,45.00
2019-03-29T23:33:35.660Z,40.77
2019-03-29T23:36:04.725Z,37.60
2019-03-29T23:38:33.821Z,30.60
2019-03-29T23:41:03.404Z,29.43
2019-03-29T23:43:32.606Z,33.40
2019-03-29T23:46:01.608Z,38.30
2019-03-29T23:48:30.623Z,42.60
2019-03-29T23:50:59.655Z,36.83
2019-03-29T23:53:28.752Z,49.17
2019-03-29T23:55:57.759Z,41.47
2019-03-29T23:58:26.767Z,41.30
